Time;durP1;ratioP1;P1;durP2;ratioP2;P2;SDS_P1;SDS_P2;PMS_P1;PMS_P2;Temp;Humidity;BMP_temperature;BMP_pressure;BME280_temperature;BME280_humidity;BME280_pressure;Samples;Min_cycle;Max_cycle;Signal;HPM_P1;HPM_P2
2022/05/26 00:01:33;;;;;;;1.67;1.57;;;;;;;25.18;49.45;95309.91;4973200;28;20195;-63
2022/05/26 00:04:01;;;;;;;2.40;1.73;;;;;;;24.95;50.17;95301.53;4975309;28;20218;-64
2022/05/26 00:06:29;;;;;;;1.07;1.07;;;;;;;25.09;49.97;95301.97;4974243;28;20298;-67
2022/05/26 00:08:58;;;;;;;1.77;1.67;;;;;;;24.84;51.10;95303.88;4972568;28;20645;-66
2022/05/26 00:11:34;;;;;;;1.37;1.33;;;;;;;24.25;52.71;95294.63;4971328;28;20199;-66
2022/05/26 00:14:07;;;;;;;1.57;1.47;;;;;;;23.90;54.09;95290.72;4972554;28;20237;-65
2022/05/26 00:16:36;;;;;;;4.17;3.30;;;;;;;24.39;51.96;95289.75;4972321;28;20207;-66
2022/05/26 00:19:04;;;;;;;2.07;1.97;;;;;;;23.61;54.58;95296.16;4971713;28;20221;-62
2022/05/26 00:21:31;;;;;;;3.13;2.93;;;;;;;24.47;52.12;95301.50;4971842;28;20239;-63
2022/05/26 00:23:58;;;;;;;3.07;1.50;;;;;;;24.72;50.82;95303.91;4972346;28;20198;-65
2022/05/26 00:26:26;;;;;;;1.93;1.80;;;;;;;25.01;50.49;95308.25;4972215;28;20313;-63
2022/05/26 00:28:53;;;;;;;2.43;1.77;;;;;;;24.97;50.37;95310.81;4972558;28;20636;-65
2022/05/26 00:31:20;;;;;;;1.70;1.13;;;;;;;24.74;50.88;95307.00;4970232;28;20195;-62
2022/05/26 00:33:47;;;;;;;2.67;2.50;;;;;;;23.94;53.12;95289.72;4972551;28;20195;-66
2022/05/26 00:36:16;;;;;;;16.77;3.43;;;;;;;24.60;51.85;95289.66;4971916;28;20199;-62
2022/05/26 00:38:43;;;;;;;2.03;1.93;;;;;;;24.45;51.87;95290.31;4972152;28;20254;-66
2022/05/26 00:41:13;;;;;;;2.10;2.00;;;;;;;24.39;52.03;95284.41;4972227;28;20203;-61
2022/05/26 00:43:42;;;;;;;3.10;2.67;;;;;;;24.47;52.11;95293.47;4972688;28;20333;-61
2022/05/26 00:46:11;;;;;;;7.33;2.90;;;;;;;24.57;51.42;95291.13;4971596;28;20726;-60
2022/05/26 00:48:50;;;;;;;1.97;1.87;;;;;;;24.81;51.00;95291.16;4971842;28;20277;-63
2022/05/26 00:51:29;;;;;;;4.50;3.37;;;;;;;24.77;50.74;95300.19;4971781;28;20678;-63
2022/05/26 00:54:02;;;;;;;3.00;2.57;;;;;;;24.73;50.79;95289.38;4971702;28;20286;-64
2022/05/26 00:56:40;;;;;;;2.40;2.30;;;;;;;23.89;53.51;95297.16;4971981;28;20223;-63
2022/05/26 00:59:16;;;;;;;1.67;1.60;;;;;;;24.05;53.51;95295.47;4971857;28;20190;-62
2022/05/26 01:01:45;;;;;;;1.50;1.40;;;;;;;24.29;52.64;95287.50;4971019;28;20218;-64
2022/05/26 01:04:18;;;;;;;2.13;2.03;;;;;;;24.44;51.73;95286.84;4971756;28;20559;-66
2022/05/26 01:06:52;;;;;;;3.43;2.37;;;;;;;24.42;52.13;95297.13;4971310;28;20249;-64
2022/05/26 01:09:20;;;;;;;1.97;1.87;;;;;;;24.57;50.99;95312.56;4971698;28;20198;-64
2022/05/26 01:11:47;;;;;;;1.80;1.70;;;;;;;24.60;51.37;95309.19;4954232;28;20175;-62
2022/05/26 01:14:18;;;;;;;1.13;1.13;;;;;;;24.33;52.22;95317.06;4970990;28;20241;-62
2022/05/26 01:17:12;;;;;;;1.83;1.73;;;;;;;24.45;51.90;95304.47;4970525;28;20326;-61
2022/05/26 01:19:58;;;;;;;2.40;2.23;;;;;;;24.64;51.53;95307.41;4971644;28;20865;-61
2022/05/26 01:22:58;;;;;;;1.60;1.50;;;;;;;24.18;52.92;95301.66;4971688;28;20239;-66
2022/05/26 01:25:50;;;;;;;2.53;2.33;;;;;;;24.14;53.43;95303.41;4971696;28;20266;-64
2022/05/26 01:28:55;;;;;;;1.07;1.07;;;;;;;24.58;51.67;95310.66;4971642;28;20740;-64
2022/05/26 01:31:55;;;;;;;1.53;1.43;;;;;;;24.61;51.76;95318.03;4970820;28;20198;-64
2022/05/26 01:34:45;;;;;;;1.27;1.17;;;;;;;24.71;51.60;95313.03;4954054;28;20285;-64
2022/05/26 01:37:22;;;;;;;2.17;2.07;;;;;;;24.30;52.97;95317.75;4970898;28;20200;-63
2022/05/26 01:40:21;;;;;;;3.97;2.00;;;;;;;24.20;53.19;95329.66;4954394;28;20213;-63
2022/05/26 01:43:06;;;;;;;3.10;2.90;;;;;;;24.25;52.90;95336.72;4970781;28;20198;-65
2022/05/26 01:45:59;;;;;;;2.53;2.33;;;;;;;24.46;52.12;95334.75;4970866;28;20269;-65
2022/05/26 01:48:54;;;;;;;1.60;1.50;;;;;;;24.59;51.80;95326.41;4962972;28;20258;-64
2022/05/26 01:51:31;;;;;;;2.87;2.63;;;;;;;24.60;51.68;95338.69;4940980;28;20754;-63
2022/05/26 01:54:07;;;;;;;2.50;2.40;;;;;;;24.05;52.76;95330.25;4971857;28;20488;-65
2022/05/26 01:56:59;;;;;;;4.13;3.43;;;;;;;24.50;52.00;95333.75;4953431;28;20326;-64
2022/05/26 01:59:35;;;;;;;0.83;0.83;;;;;;;24.30;52.44;95329.25;4970633;28;20207;-62
2022/05/26 02:02:07;;;;;;;9.87;3.30;;;;;;;24.24;52.62;95314.50;4970327;28;20294;-63
2022/05/26 02:04:39;;;;;;;2.87;2.67;;;;;;;24.36;52.11;95322.53;4971065;28;20206;-63
2022/05/26 02:07:26;;;;;;;5.40;4.33;;;;;;;24.21;52.56;95317.84;4970593;28;20242;-64
2022/05/26 02:09:58;;;;;;;4.00;2.93;;;;;;;24.07;52.74;95314.66;4970434;28;20199;-65
2022/05/26 02:12:33;;;;;;;1.80;1.70;;;;;;;24.40;52.11;95318.09;4970668;28;20207;-63
2022/05/26 02:15:08;;;;;;;2.00;1.90;;;;;;;24.38;52.03;95320.31;4970611;28;20696;-68
2022/05/26 02:17:45;;;;;;;1.90;1.50;;;;;;;24.30;51.86;95321.22;4953028;28;20213;-63
2022/05/26 02:20:20;;;;;;;4.67;3.50;;;;;;;23.98;52.93;95312.03;4970618;28;20206;-62
2022/05/26 02:23:18;;;;;;;2.50;2.30;;;;;;;24.05;52.75;95322.22;4970660;28;20223;-62
2022/05/26 02:25:45;;;;;;;2.17;1.90;;;;;;;24.22;51.88;95338.13;4970375;28;20237;-64
2022/05/26 02:28:12;;;;;;;1.90;1.80;;;;;;;24.33;51.17;95328.56;4970535;28;20753;-64
2022/05/26 02:30:42;;;;;;;1.07;1.07;;;;;;;24.37;51.03;95332.16;4970606;28;20576;-64
2022/05/26 02:33:12;;;;;;;3.90;3.57;;;;;;;24.36;51.36;95337.84;4970203;28;20583;-66
2022/05/26 02:35:43;;;;;;;3.40;2.87;;;;;;;24.38;51.61;95335.63;4974277;28;20249;-63
2022/05/26 02:38:14;;;;;;;3.07;2.77;;;;;;;23.66;53.83;95334.22;4959276;28;20195;-61
2022/05/26 02:40:43;;;;;;;1.87;1.77;;;;;;;23.49;53.93;95328.97;4975583;28;20294;-63
2022/05/26 02:43:16;;;;;;;2.30;2.17;;;;;;;23.27;54.49;95342.63;4974931;28;20191;-65
2022/05/26 02:45:49;;;;;;;2.07;1.93;;;;;;;23.10;55.26;95330.13;4974314;28;20294;-64
2022/05/26 02:48:35;;;;;;;1.70;1.60;;;;;;;23.33;55.12;95321.84;4974227;28;20222;-65
2022/05/26 02:51:10;;;;;;;4.70;3.17;;;;;;;23.60;53.83;95324.00;4974426;28;20450;-63
2022/05/26 02:53:48;;;;;;;1.60;1.50;;;;;;;23.68;52.99;95326.63;4974136;28;20206;-62
2022/05/26 02:56:41;;;;;;;3.13;2.87;;;;;;;24.00;52.51;95341.16;4974005;28;20497;-65
2022/05/26 02:59:17;;;;;;;4.27;3.87;;;;;;;24.12;51.82;95338.56;4973943;28;20626;-65
2022/05/26 03:01:53;;;;;;;2.60;2.40;;;;;;;24.18;51.57;95345.25;4973966;28;20198;-66
2022/05/26 03:04:25;;;;;;;1.70;1.30;;;;;;;24.22;51.57;95343.50;4974253;28;20253;-66
2022/05/26 03:07:02;;;;;;;7.73;3.53;;;;;;;24.03;51.92;95352.00;4973985;28;20702;-63
2022/05/26 03:09:32;;;;;;;3.73;2.83;;;;;;;24.05;51.42;95359.72;4974248;28;20277;-64
2022/05/26 03:11:59;;;;;;;0.97;0.97;;;;;;;24.10;51.00;95362.22;4973176;28;20199;-65
2022/05/26 03:14:27;;;;;;;4.00;3.17;;;;;;;23.86;52.08;95356.72;4973327;28;20690;-62
2022/05/26 03:16:55;;;;;;;2.07;1.97;;;;;;;24.07;51.50;95363.63;4973918;28;20207;-65
2022/05/26 03:19:22;;;;;;;9.87;2.07;;;;;;;23.75;52.35;95366.25;4973628;28;20183;-62
2022/05/26 03:21:49;;;;;;;1.70;1.60;;;;;;;23.83;52.15;95363.50;4974809;28;20241;-64
2022/05/26 03:24:15;;;;;;;11.17;3.90;;;;;;;23.87;51.59;95360.94;4975409;28;20733;-64
2022/05/26 03:26:42;;;;;;;3.47;3.17;;;;;;;23.82;52.39;95364.63;4956619;28;20226;-63
2022/05/26 03:29:09;;;;;;;3.73;3.43;;;;;;;23.86;52.11;95372.78;4973593;28;20195;-64
2022/05/26 03:31:36;;;;;;;1.63;1.53;;;;;;;23.57;53.12;95368.28;4973364;28;20207;-64
2022/05/26 03:42:19;;;;;;;3.60;3.30;;;;;;;23.54;53.22;95370.81;4973207;28;20222;-64
2022/05/26 03:44:47;;;;;;;1.40;1.30;;;;;;;23.16;54.13;95365.50;4973124;28;20191;-65
2022/05/26 03:47:14;;;;;;;2.53;2.40;;;;;;;23.51;53.20;95382.16;4971766;28;20222;-64
2022/05/26 03:49:41;;;;;;;2.97;2.80;;;;;;;23.23;54.57;95397.09;4972420;28;20176;-64
2022/05/26 03:52:08;;;;;;;2.93;2.73;;;;;;;23.47;54.15;95386.56;4972609;28;20191;-64
2022/05/26 03:54:35;;;;;;;1.93;1.83;;;;;;;23.85;52.54;95385.38;4972943;28;20211;-64
2022/05/26 03:57:03;;;;;;;3.10;2.90;;;;;;;23.83;52.71;95384.91;4972740;28;20733;-66
2022/05/26 03:59:32;;;;;;;1.53;1.43;;;;;;;24.12;51.39;95386.75;4973208;28;20211;-63
2022/05/26 04:02:00;;;;;;;2.67;2.47;;;;;;;23.81;53.10;95391.72;4972555;28;20198;-64
2022/05/26 04:04:27;;;;;;;3.17;2.97;;;;;;;23.76;52.87;95391.88;4972998;28;20199;-63
2022/05/26 04:06:53;;;;;;;3.30;3.10;;;;;;;23.86;53.08;95399.53;4955792;28;20226;-63
2022/05/26 04:09:20;;;;;;;1.20;1.20;;;;;;;23.77;53.39;95409.53;4973548;28;20593;-69
2022/05/26 04:11:47;;;;;;;1.27;1.20;;;;;;;24.13;52.57;95403.59;4973209;28;20516;-64
2022/05/26 04:14:14;;;;;;;1.60;1.50;;;;;;;24.15;52.33;95402.16;4972780;28;20237;-65
2022/05/26 04:16:42;;;;;;;1.73;1.63;;;;;;;24.02;52.86;95405.91;4972857;28;20617;-65
2022/05/26 04:19:10;;;;;;;1.70;1.60;;;;;;;24.33;52.17;95400.91;4972765;28;20211;-64
2022/05/26 04:22:14;;;;;;;2.13;2.03;;;;;;;24.16;52.44;95403.72;4955110;28;20726;-67
2022/05/26 04:24:24;;;;;;;1.37;1.33;;;;;;;24.10;53.09;95421.88;4972446;28;20650;-63
2022/05/26 04:26:50;;;;;;;2.07;1.93;;;;;;;24.15;52.30;95412.88;4971743;28;20244;-64
2022/05/26 04:29:17;;;;;;;2.40;2.20;;;;;;;24.06;52.91;95431.69;4972248;28;20180;-67
2022/05/26 04:31:44;;;;;;;2.30;2.10;;;;;;;23.69;53.87;95421.06;4972237;28;20655;-64
2022/05/26 04:34:11;;;;;;;1.83;1.73;;;;;;;23.37;54.13;95424.41;4972247;28;20215;-67
2022/05/26 04:36:38;;;;;;;5.40;4.90;;;;;;;23.00;55.00;95418.72;4972140;28;20203;-65
2022/05/26 04:39:05;;;;;;;1.83;1.73;;;;;;;23.75;53.33;95415.22;4971676;28;20648;-65
2022/05/26 04:41:31;;;;;;;4.60;2.97;;;;;;;23.36;55.07;95422.81;4971553;28;20191;-68
2022/05/26 04:43:58;;;;;;;12.83;3.80;;;;;;;23.43;54.56;95425.81;4971509;28;20750;-65
2022/05/26 04:46:25;;;;;;;5.23;3.60;;;;;;;24.01;53.41;95425.75;4970959;28;20188;-66
2022/05/26 04:48:52;;;;;;;2.23;2.03;;;;;;;23.87;53.29;95439.34;4971536;28;20207;-69
2022/05/26 04:51:19;;;;;;;1.07;1.07;;;;;;;23.85;53.71;95424.72;4972075;28;20263;-68
2022/05/26 04:53:49;;;;;;;2.73;2.53;;;;;;;23.77;53.53;95430.94;4971753;28;20215;-68
2022/05/26 04:56:16;;;;;;;1.00;1.00;;;;;;;23.94;53.72;95428.16;4971786;28;20534;-68
2022/05/26 04:58:43;;;;;;;1.60;1.53;;;;;;;24.04;52.94;95433.13;4971604;28;20238;-69
2022/05/26 05:01:16;;;;;;;4.53;4.07;;;;;;;23.79;53.73;95418.00;4971951;28;20302;-70
2022/05/26 05:03:44;;;;;;;2.70;2.50;;;;;;;23.91;53.42;95428.78;4971974;28;20681;-69
2022/05/26 05:06:11;;;;;;;3.00;2.80;;;;;;;24.17;52.90;95437.44;4954158;28;20234;-67
2022/05/26 05:08:38;;;;;;;1.30;1.20;;;;;;;24.37;52.15;95436.63;4971597;28;20250;-69
2022/05/26 05:11:05;;;;;;;3.03;2.70;;;;;;;24.38;52.07;95432.84;4954183;28;20253;-69
2022/05/26 05:13:32;;;;;;;2.63;2.50;;;;;;;24.52;52.28;95427.19;4971673;28;20647;-66
2022/05/26 05:16:06;;;;;;;2.97;2.67;;;;;;;24.70;51.45;95429.41;4971719;28;20258;-68
2022/05/26 05:18:33;;;;;;;2.73;2.23;;;;;;;24.72;51.01;95415.69;4971525;28;20206;-72
2022/05/26 05:21:06;;;;;;;5.77;5.37;;;;;;;24.87;51.06;95429.22;4971268;28;20693;-70
2022/05/26 05:23:40;;;;;;;4.87;3.60;;;;;;;24.47;52.79;95438.88;4971334;28;20294;-69
2022/05/26 05:26:13;;;;;;;2.53;2.33;;;;;;;24.15;53.41;95445.00;4971167;28;20658;-68
2022/05/26 05:28:44;;;;;;;3.60;3.30;;;;;;;24.93;51.32;95443.19;4971446;28;20207;-67
2022/05/26 05:31:22;;;;;;;3.40;3.13;;;;;;;24.93;51.14;95427.88;4971313;28;20211;-72
2022/05/26 05:33:53;;;;;;;8.60;2.23;;;;;;;24.96;51.89;95445.97;4971454;28;20203;-72
2022/05/26 05:36:23;;;;;;;2.23;2.03;;;;;;;25.14;51.66;95453.84;4971531;28;20250;-72
2022/05/26 05:38:51;;;;;;;2.53;2.30;;;;;;;25.17;51.15;95455.84;4971030;28;20290;-70
2022/05/26 05:41:21;;;;;;;4.07;3.77;;;;;;;24.84;52.47;95459.38;4971122;28;20254;-72
2022/05/26 05:43:48;;;;;;;2.40;2.20;;;;;;;24.98;51.57;95459.09;4971440;28;20230;-73
2022/05/26 05:46:15;;;;;;;5.33;3.33;;;;;;;25.37;50.68;95458.44;4971126;28;20626;-71
2022/05/26 05:48:43;;;;;;;4.23;2.53;;;;;;;25.42;50.52;95462.84;4971328;28;20305;-72
2022/05/26 05:51:11;;;;;;;2.80;1.17;;;;;;;25.36;50.32;95461.47;4953865;28;20199;-71
2022/05/26 05:53:38;;;;;;;3.83;3.53;;;;;;;25.13;50.71;95465.69;4971174;28;20233;-72
2022/05/26 05:56:06;;;;;;;2.40;2.30;;;;;;;25.45;50.73;95467.53;4971528;28;20203;-73
2022/05/26 05:58:33;;;;;;;5.27;2.93;;;;;;;25.76;49.15;95475.81;4970845;28;20222;-71
2022/05/26 06:01:00;;;;;;;22.53;1.63;;;;;;;25.37;49.98;95468.38;4970557;28;20191;-72
2022/05/26 06:03:32;;;;;;;2.20;2.07;;;;;;;25.66;49.53;95478.94;4970613;28;20187;-73
2022/05/26 06:06:00;;;;;;;3.47;3.27;;;;;;;25.83;49.62;95484.06;4970755;28;20683;-72
2022/05/26 06:08:27;;;;;;;3.80;3.27;;;;;;;26.01;49.50;95482.72;4971974;28;20293;-74
2022/05/26 06:10:54;;;;;;;1.77;1.67;;;;;;;25.82;48.19;95494.03;4971286;28;20211;-73
2022/05/26 06:13:21;;;;;;;4.70;2.33;;;;;;;25.89;48.36;95485.41;4971557;28;20678;-75
2022/05/26 06:15:52;;;;;;;4.57;3.63;;;;;;;25.91;48.25;95489.31;4971174;28;20187;-74
2022/05/26 06:18:19;;;;;;;5.00;2.23;;;;;;;25.85;48.61;95479.16;4971485;28;20583;-75
2022/05/26 06:20:46;;;;;;;1.87;1.77;;;;;;;25.66;49.07;95486.97;4970671;28;20672;-73
2022/05/26 06:23:17;;;;;;;2.90;2.63;;;;;;;25.93;48.21;95491.66;4970703;28;20207;-74
2022/05/26 06:25:44;;;;;;;2.00;1.90;;;;;;;25.96;48.00;95491.00;4970667;28;20209;-70
2022/05/26 06:30:56;;;;;;;1.07;1.07;;;;;;;25.72;48.94;95474.91;4970537;28;20261;-72
2022/05/26 06:38:58;;;;;;;1.27;1.27;;;;;;;26.09;49.97;95508.69;4971644;28;20206;-72
2022/05/26 06:44:11;;;;;;;8.63;2.70;;;;;;;25.85;50.57;95514.84;4971398;28;20209;-72
2022/05/26 06:46:38;;;;;;;3.23;2.60;;;;;;;26.31;49.02;95502.84;4972335;28;20634;-68
2022/05/26 06:49:05;;;;;;;1.33;1.23;;;;;;;26.49;48.04;95506.81;4972521;28;20288;-69
2022/05/26 06:51:36;;;;;;;3.40;2.57;;;;;;;26.08;49.88;95500.97;4971362;28;20195;-69
2022/05/26 06:54:04;;;;;;;2.13;1.93;;;;;;;26.42;49.26;95509.28;4970834;28;20253;-70
2022/05/26 06:56:32;;;;;;;3.00;2.30;;;;;;;26.84;48.11;95499.75;4970462;28;20583;-70
2022/05/26 06:58:59;;;;;;;2.73;2.57;;;;;;;26.74;47.35;95500.25;4970241;28;20310;-70
2022/05/26 07:01:26;;;;;;;3.17;2.17;;;;;;;27.06;46.29;95506.50;4970666;28;20203;-70
2022/05/26 07:03:53;;;;;;;2.90;2.20;;;;;;;26.70;48.04;95501.25;4953319;28;20214;-69
2022/05/26 07:06:24;;;;;;;4.73;3.07;;;;;;;26.61;45.47;95496.00;4970062;28;20199;-69
2022/05/26 07:08:52;;;;;;;1.93;1.83;;;;;;;26.56;45.23;95493.56;4952888;28;20231;-69
2022/05/26 07:11:19;;;;;;;3.33;2.93;;;;;;;26.65;44.22;95496.09;4969995;28;20217;-68
2022/05/26 07:13:46;;;;;;;2.10;1.67;;;;;;;27.42;42.93;95497.44;4970110;28;20275;-72
2022/05/26 07:16:13;;;;;;;3.67;2.60;;;;;;;27.66;41.54;95497.25;4970570;28;20209;-70
2022/05/26 07:18:42;;;;;;;2.43;2.17;;;;;;;27.80;40.77;95508.34;4969947;28;20612;-69
2022/05/26 07:21:10;;;;;;;2.27;2.17;;;;;;;28.08;40.55;95503.66;4971397;28;20618;-70
2022/05/26 07:23:37;;;;;;;0.83;0.83;;;;;;;27.84;40.14;95477.69;4973700;28;20195;-69
2022/05/26 07:26:10;;;;;;;0.97;0.97;;;;;;;27.64;42.43;95505.69;4973636;28;20243;-69
2022/05/26 07:28:40;;;;;;;0.73;0.73;;;;;;;27.89;42.16;95498.97;4973573;28;20234;-71
2022/05/26 07:31:08;;;;;;;1.13;0.97;;;;;;;28.27;41.96;95500.97;4973489;28;20187;-70
2022/05/26 07:33:35;;;;;;;1.33;1.17;;;;;;;28.27;41.55;95479.41;4973321;28;20206;-69
2022/05/26 07:36:03;;;;;;;1.73;1.63;;;;;;;28.24;41.16;95496.31;4973783;28;20343;-69
2022/05/26 07:41:25;;;;;;;2.90;2.50;;;;;;;28.35;41.69;95501.91;4974405;28;20195;-70
2022/05/26 07:43:57;;;;;;;3.13;2.63;;;;;;;28.20;41.34;95500.84;4975239;28;20218;-72
2022/05/26 07:46:25;;;;;;;6.50;2.20;;;;;;;27.97;41.50;95505.31;4974056;28;20175;-69
2022/05/26 07:48:52;;;;;;;2.33;2.17;;;;;;;28.29;41.87;95506.81;4955926;28;20215;-72
2022/05/26 07:51:21;;;;;;;1.53;1.43;;;;;;;28.59;40.67;95499.00;4973805;28;20222;-70
2022/05/26 07:53:49;;;;;;;1.33;1.23;;;;;;;28.52;38.39;95505.00;4956200;28;20589;-70
2022/05/26 07:56:16;;;;;;;1.37;1.27;;;;;;;28.80;35.74;95502.88;4973048;28;20257;-71
2022/05/26 07:58:43;;;;;;;1.13;1.13;;;;;;;29.11;37.79;95501.13;4973463;28;20203;-70
2022/05/26 08:01:11;;;;;;;0.73;0.73;;;;;;;28.89;37.42;95503.44;4973220;28;20235;-69
2022/05/26 08:03:38;;;;;;;1.03;0.97;;;;;;;29.20;36.62;95513.28;4973115;28;20199;-70
2022/05/26 08:06:06;;;;;;;1.27;1.10;;;;;;;29.17;33.93;95518.63;4973615;28;20206;-69
2022/05/26 08:08:34;;;;;;;1.07;1.00;;;;;;;28.76;33.80;95510.13;4972803;28;20231;-72
2022/05/26 08:11:01;;;;;;;0.43;0.43;;;;;;;29.07;33.93;95505.69;4972714;28;20207;-69
2022/05/26 08:13:28;;;;;;;9.43;1.17;;;;;;;29.08;32.62;95516.13;4973030;28;20194;-69
2022/05/26 08:15:55;;;;;;;0.87;0.87;;;;;;;29.03;32.00;95511.03;4972798;28;20207;-70
2022/05/26 08:18:22;;;;;;;0.53;0.53;;;;;;;29.37;33.07;95517.44;4973136;28;20211;-68
2022/05/26 08:20:50;;;;;;;0.90;0.77;;;;;;;29.71;32.06;95519.19;4972203;28;20245;-70
2022/05/26 08:23:23;;;;;;;0.87;0.87;;;;;;;30.21;31.22;95512.63;4972471;28;20282;-68
2022/05/26 08:25:50;;;;;;;0.30;0.30;;;;;;;30.03;31.21;95514.31;4972071;28;20202;-69
2022/05/26 08:28:17;;;;;;;2.37;1.33;;;;;;;29.68;31.27;95514.50;4972241;28;20242;-68
2022/05/26 08:30:44;;;;;;;0.90;0.67;;;;;;;30.24;31.24;95514.59;4972739;28;20179;-69
2022/05/26 08:33:11;;;;;;;0.60;0.60;;;;;;;29.71;30.13;95530.00;4971921;28;20198;-68
2022/05/26 08:35:38;;;;;;;0.70;0.70;;;;;;;30.14;30.40;95505.22;4972530;28;20636;-69
2022/05/26 08:38:06;;;;;;;0.40;0.40;;;;;;;30.33;30.90;95526.75;4972551;28;20301;-68
2022/05/26 08:40:36;;;;;;;0.90;0.87;;;;;;;30.56;29.90;95522.03;4972441;28;20597;-71
2022/05/26 08:43:05;;;;;;;1.80;1.13;;;;;;;30.27;31.70;95525.50;4972782;28;20261;-67
2022/05/26 08:45:39;;;;;;;0.47;0.47;;;;;;;30.05;30.63;95534.44;4972111;28;20578;-69
2022/05/26 08:48:07;;;;;;;1.10;1.07;;;;;;;29.61;30.31;95515.19;4972202;28;20243;-68
2022/05/26 08:50:34;;;;;;;0.57;0.57;;;;;;;29.88;30.62;95524.91;4971718;28;20203;-70
2022/05/26 08:53:19;;;;;;;1.00;0.90;;;;;;;30.37;31.28;95524.88;4972159;28;20230;-69
2022/05/26 08:55:50;;;;;;;6.13;2.63;;;;;;;30.65;30.94;95522.53;4972054;28;20206;-70
2022/05/26 08:58:27;;;;;;;0.80;0.80;;;;;;;30.68;30.72;95518.31;4971937;28;20278;-67
2022/05/26 09:00:57;;;;;;;0.30;0.30;;;;;;;29.78;31.28;95525.50;4971829;28;20179;-68
2022/05/26 09:03:27;;;;;;;0.73;0.73;;;;;;;30.15;32.01;95522.97;4971861;28;20551;-69
2022/05/26 09:06:03;;;;;;;0.60;0.60;;;;;;;30.23;30.55;95535.47;4971949;28;20235;-69
2022/05/26 09:14:41;;;;;;;0.80;0.80;;;;;;;29.22;31.99;95529.13;4971595;28;20207;-68
2022/05/26 09:17:14;;;;;;;1.10;0.50;;;;;;;29.59;32.38;95505.88;4970389;28;20206;-68
2022/05/26 09:19:43;;;;;;;1.23;0.77;;;;;;;30.50;32.16;95523.50;4971230;28;20687;-69
2022/05/26 09:22:40;;;;;;;0.97;0.87;;;;;;;30.09;31.28;95524.44;4971301;28;20231;-70
2022/05/26 09:25:44;;;;;;;0.40;0.40;;;;;;;30.88;31.12;95517.03;4971841;28;20195;-68
2022/05/26 09:28:11;;;;;;;0.87;0.87;;;;;;;30.98;30.66;95510.97;4971276;28;20325;-69
2022/05/26 09:30:39;;;;;;;1.23;1.13;;;;;;;31.26;29.74;95515.91;4970889;28;20614;-69
2022/05/26 09:33:27;;;;;;;0.60;0.60;;;;;;;30.24;30.49;95528.91;4971304;28;20187;-68
2022/05/26 09:35:54;;;;;;;0.83;0.83;;;;;;;30.68;29.84;95516.38;4971324;28;20291;-67
2022/05/26 09:38:32;;;;;;;1.20;0.63;;;;;;;30.65;29.40;95514.44;4971331;28;21019;-70
2022/05/26 09:41:06;;;;;;;0.70;0.70;;;;;;;30.49;30.06;95505.69;4971220;28;20198;-68
2022/05/26 09:43:33;;;;;;;1.43;1.33;;;;;;;30.56;30.45;95527.44;4971198;28;20278;-69
2022/05/26 09:46:11;;;;;;;0.20;0.20;;;;;;;30.13;30.38;95514.44;4970472;28;20670;-68
2022/05/26 09:48:39;;;;;;;0.50;0.50;;;;;;;29.64;30.12;95519.06;4971081;28;20277;-68
2022/05/26 09:51:27;;;;;;;0.80;0.80;;;;;;;30.40;30.63;95513.31;4971288;28;20757;-68
2022/05/26 09:53:55;;;;;;;0.60;0.60;;;;;;;30.16;29.43;95511.03;4971713;28;20215;-67
2022/05/26 09:56:42;;;;;;;0.80;0.80;;;;;;;30.59;28.29;95515.88;4971562;28;20210;-69
2022/05/26 09:59:45;;;;;;;0.30;0.30;;;;;;;30.63;29.18;95511.31;4971136;28;20199;-65
2022/05/26 10:02:23;;;;;;;0.63;0.63;;;;;;;30.85;28.57;95512.38;4911089;29;20205;-64
2022/05/26 10:05:09;;;;;;;2.03;1.37;;;;;;;31.25;28.77;95495.38;4963956;28;20203;-66
2022/05/26 10:07:54;;;;;;;0.40;0.40;;;;;;;30.81;29.34;95498.78;4970762;28;20663;-64
2022/05/26 10:10:27;;;;;;;0.87;0.87;;;;;;;30.90;29.08;95498.50;4973098;28;20229;-67
2022/05/26 10:13:31;;;;;;;0.43;0.43;;;;;;;31.27;28.98;95493.88;4972047;28;20645;-67
2022/05/26 10:16:24;;;;;;;0.30;0.30;;;;;;;31.06;28.13;95492.88;4971740;28;20217;-67
2022/05/26 10:19:02;;;;;;;0.30;0.30;;;;;;;31.88;28.67;95485.09;4974296;28;20587;-65
2022/05/26 10:21:42;;;;;;;0.20;0.20;;;;;;;32.33;28.60;95481.94;4970811;28;20274;-67
2022/05/26 10:24:08;;;;;;;3.20;1.47;;;;;;;32.12;27.60;95476.38;4970905;28;20282;-64
2022/05/26 10:26:59;;;;;;;0.20;0.20;;;;;;;31.37;27.21;95492.44;4970894;28;20207;-65
2022/05/26 10:29:59;;;;;;;10.47;1.10;;;;;;;31.64;27.35;95480.28;4970227;28;20211;-65
2022/05/26 10:32:55;;;;;;;0.23;0.23;;;;;;;32.02;25.11;95466.28;4970184;28;20207;-66
2022/05/26 10:35:33;;;;;;;2.70;1.00;;;;;;;32.34;24.48;95474.56;4967617;28;20242;-65
2022/05/26 10:38:23;;;;;;;1.07;1.00;;;;;;;32.65;24.35;95476.69;4970372;28;20197;-64
2022/05/26 10:41:14;;;;;;;1.00;0.90;;;;;;;32.02;23.42;95468.97;4969483;28;20203;-66
2022/05/26 10:43:49;;;;;;;0.20;0.20;;;;;;;31.97;23.30;95474.72;4970600;28;20195;-67
2022/05/26 10:46:18;;;;;;;0.33;0.33;;;;;;;32.09;22.93;95471.72;4970450;28;20206;-68
2022/05/26 10:48:52;;;;;;;1.23;0.97;;;;;;;32.29;23.09;95486.56;4970720;28;20234;-65
2022/05/26 10:51:31;;;;;;;0.40;0.40;;;;;;;32.62;22.78;95472.81;4970501;28;20670;-65
2022/05/26 10:54:19;;;;;;;0.70;0.70;;;;;;;32.23;22.72;95479.94;4970328;28;20274;-68
2022/05/26 10:57:05;;;;;;;0.60;0.60;;;;;;;32.17;22.72;95475.25;4972933;28;20209;-70
2022/05/26 10:59:42;;;;;;;0.27;0.27;;;;;;;32.04;22.50;95472.09;4973834;28;20199;-66
2022/05/26 11:02:18;;;;;;;2.33;1.80;;;;;;;31.95;21.13;95465.44;4973878;28;20207;-65
2022/05/26 11:05:01;;;;;;;0.53;0.53;;;;;;;31.59;21.84;95464.38;4974419;28;20233;-67
2022/05/26 11:07:32;;;;;;;0.30;0.30;;;;;;;31.88;23.10;95482.38;4974017;28;20190;-66
2022/05/26 11:10:27;;;;;;;0.73;0.70;;;;;;;32.37;24.96;95463.72;4974163;28;20230;-65
2022/05/26 11:13:12;;;;;;;0.40;0.40;;;;;;;31.59;23.56;95480.63;4961154;28;20223;-64
2022/05/26 11:19:06;;;;;;;0.30;0.30;;;;;;;31.76;25.14;95469.94;4973632;28;20753;-66
2022/05/26 11:21:33;;;;;;;0.40;0.40;;;;;;;32.56;25.23;95463.47;4973456;28;20733;-65
2022/05/26 11:24:00;;;;;;;1.47;1.07;;;;;;;32.75;24.76;95462.38;4973771;28;20180;-64
2022/05/26 11:26:42;;;;;;;0.57;0.43;;;;;;;32.62;24.13;95464.66;4973759;28;20209;-65
2022/05/26 11:29:21;;;;;;;3.30;1.07;;;;;;;32.99;24.24;95460.91;4973743;28;20210;-65
2022/05/26 11:37:35;;;;;;;0.73;0.40;;;;;;;33.25;23.21;95460.59;4973068;28;20219;-66
2022/05/26 11:40:08;;;;;;;0.53;0.53;;;;;;;32.29;23.90;95454.03;4972775;28;20217;-65
2022/05/26 11:42:49;;;;;;;15.33;1.87;;;;;;;32.39;24.21;95447.09;4972987;28;20249;-66
2022/05/26 11:45:33;;;;;;;0.80;0.80;;;;;;;33.01;23.59;95445.78;4973621;28;20855;-65
2022/05/26 11:48:02;;;;;;;0.87;0.80;;;;;;;32.79;24.21;95450.34;4972878;28;20199;-66
2022/05/26 11:50:48;;;;;;;0.40;0.40;;;;;;;32.89;24.53;95442.63;4973060;28;20219;-65
2022/05/26 11:53:27;;;;;;;0.77;0.77;;;;;;;33.45;24.04;95451.69;4973300;28;20548;-64
2022/05/26 11:56:03;;;;;;;1.20;1.17;;;;;;;33.05;24.12;95452.00;4972775;28;20665;-64
2022/05/26 11:58:40;;;;;;;0.20;0.20;;;;;;;33.64;23.43;95455.97;4972725;28;20697;-66
2022/05/26 12:01:14;;;;;;;0.73;0.63;;;;;;;33.18;23.73;95438.81;4972919;28;20298;-65
2022/05/26 12:03:56;;;;;;;0.50;0.50;;;;;;;33.28;24.33;95452.44;4973161;28;20683;-65
2022/05/26 12:06:37;;;;;;;3.70;1.40;;;;;;;33.41;23.41;95450.13;4973395;28;20202;-68
2022/05/26 12:09:08;;;;;;;0.37;0.37;;;;;;;33.28;23.85;95440.78;4972354;28;20318;-65
2022/05/26 12:11:59;;;;;;;1.17;1.10;;;;;;;33.65;24.17;95457.50;4972830;28;20254;-66
2022/05/26 12:14:47;;;;;;;1.07;1.03;;;;;;;33.41;24.54;95459.03;4973048;28;20299;-65
2022/05/26 12:17:33;;;;;;;2.33;1.67;;;;;;;32.63;24.50;95474.34;4972180;28;20183;-65
2022/05/26 12:20:12;;;;;;;1.23;0.77;;;;;;;32.98;25.24;95478.34;4972605;28;20266;-65
2022/05/26 12:22:54;;;;;;;4.73;1.20;;;;;;;32.63;25.82;95479.78;4972598;28;20241;-66
2022/05/26 12:25:23;;;;;;;1.03;0.80;;;;;;;32.43;26.18;95481.22;4956528;28;20191;-65
2022/05/26 12:27:59;;;;;;;1.73;1.63;;;;;;;32.16;25.82;95469.06;4972232;28;20195;-66
2022/05/26 12:30:28;;;;;;;2.77;1.70;;;;;;;32.23;25.17;95477.22;4973028;28;20226;-66
2022/05/26 12:32:55;;;;;;;0.43;0.43;;;;;;;32.27;25.49;95461.75;4972548;28;20200;-64
2022/05/26 12:35:41;;;;;;;0.50;0.50;;;;;;;32.53;25.49;95469.66;4972302;28;20195;-65
2022/05/26 12:38:23;;;;;;;0.87;0.87;;;;;;;32.30;25.00;95460.97;4972176;28;20655;-64
2022/05/26 12:40:58;;;;;;;0.70;0.70;;;;;;;32.47;24.62;95459.53;4972552;28;20195;-64